Flight Number: EUR1439 Duration: 3:00
Departure: Amsterdam Schiphol (EHAM) at 08:15 Distance: 1106 Nm
Arrival: Skiathos (LGSK) at 11:15 Equipment: B737

Weather Information
Amsterdam Airport Schiphol, Netherlands (EHAM) 52-18N 004-46E -2M May 22, 2018 - 03:25 PM EDT / 2018.05.22 1925 UTC
Wind: from the NNE (020 degrees) at 9 MPH (8 KT) (direction variable):0
Visibility: greater than 7 mile(s):0 Temperature: 66 F (19 C) Dew Point: 50 F (10 C) Relative Humidity: 55% Pressure (altimeter): 29.97 in. Hg (1015 hPa)
ob: EHAM 221925Z 02008KT 330V060 CAVOK 19/10 Q1015 NOSIG cycle: 19
Sunrise: 03:39 Sunset: 19:35 (UTC)

Skiathos Island, Greece (LGSK) 39-11N 023-30E May 22, 2018 - 12:50 PM EDT / 2018.05.22 1650 UTC
Wind: Calm:0
Visibility: greater than 7 mile(s):0
Sky conditions: mostly clear Temperature: 71 F (22 C) Dew Point: 60 F (16 C) Relative Humidity: 68% Pressure (altimeter): 30.00 in. Hg (1016 hPa)
ob: LGSK 221650Z 00000KT 9999 FEW020 22/16 Q1016 cycle: 17
Sunrise: 03:10 Sunset: 17:35 (UTC)

TAF:2012/09/27 00:18 TAF LGSK 272300Z 2800/2909 01010KT 9999 FEW020

Previous Pireps for this route
Date Aircraft Flight time Fuel used Landing rate On time
2014-10-10B7372.52184140Yes
2015-10-12B73702.5225727-364No
2017-02-21B7373.1023104-304No
(pireps marked green are flown by you)

Route map